sensor_id;sensor_type;location;lat;lon;timestamp;temperature;humidity
11772;DHT22;12556;55.748;13.194;2022-12-24T00:00:14;-2.10;99.90
11772;DHT22;12556;55.748;13.194;2022-12-24T00:02:41;-2.20;99.90
11772;DHT22;12556;55.748;13.194;2022-12-24T00:05:08;-2.20;99.90
11772;DHT22;12556;55.748;13.194;2022-12-24T00:07:36;-2.30;99.90
11772;DHT22;12556;55.748;13.194;2022-12-24T00:10:03;-2.40;99.90
11772;DHT22;12556;55.748;13.194;2022-12-24T00:12:31;-2.50;99.90
11772;DHT22;12556;55.748;13.194;2022-12-24T00:14:58;-2.50;99.90
11772;DHT22;12556;55.748;13.194;2022-12-24T00:17:26;-2.50;99.90
11772;DHT22;12556;55.748;13.194;2022-12-24T00:19:53;-2.50;99.90
11772;DHT22;12556;55.748;13.194;2022-12-24T00:22:20;-2.60;99.90
11772;DHT22;12556;55.748;13.194;2022-12-24T00:24:47;-2.60;99.90
11772;DHT22;12556;55.748;13.194;2022-12-24T00:27:13;-2.70;99.90
11772;DHT22;12556;55.748;13.194;2022-12-24T00:29:40;-2.70;99.90
11772;DHT22;12556;55.748;13.194;2022-12-24T00:32:07;-2.70;99.90
11772;DHT22;12556;55.748;13.194;2022-12-24T00:34:36;-2.80;99.90
11772;DHT22;12556;55.748;13.194;2022-12-24T00:37:03;-2.90;99.90
11772;DHT22;12556;55.748;13.194;2022-12-24T00:39:30;-2.90;99.90
11772;DHT22;12556;55.748;13.194;2022-12-24T00:41:57;-3.00;99.90
11772;DHT22;12556;55.748;13.194;2022-12-24T00:44:24;-3.00;99.90
11772;DHT22;12556;55.748;13.194;2022-12-24T00:46:51;-3.00;99.90
11772;DHT22;12556;55.748;13.194;2022-12-24T00:49:18;-3.10;99.90
11772;DHT22;12556;55.748;13.194;2022-12-24T00:51:46;-3.10;99.90
11772;DHT22;12556;55.748;13.194;2022-12-24T00:54:13;-3.20;99.90
11772;DHT22;12556;55.748;13.194;2022-12-24T00:56:40;-3.20;99.90
11772;DHT22;12556;55.748;13.194;2022-12-24T00:59:07;-3.20;99.90
11772;DHT22;12556;55.748;13.194;2022-12-24T01:01:34;-3.20;99.90
11772;DHT22;12556;55.748;13.194;2022-12-24T01:04:01;-3.20;99.90
11772;DHT22;12556;55.748;13.194;2022-12-24T01:06:47;-3.30;99.90
11772;DHT22;12556;55.748;13.194;2022-12-24T01:09:14;-3.40;99.90
11772;DHT22;12556;55.748;13.194;2022-12-24T01:11:41;-3.40;99.90
11772;DHT22;12556;55.748;13.194;2022-12-24T01:14:08;-3.40;99.90
11772;DHT22;12556;55.748;13.194;2022-12-24T01:16:35;-3.50;99.90
11772;DHT22;12556;55.748;13.194;2022-12-24T01:19:02;-3.50;99.90
11772;DHT22;12556;55.748;13.194;2022-12-24T01:21:29;-3.50;99.90
11772;DHT22;12556;55.748;13.194;2022-12-24T01:23:57;-3.50;99.90
11772;DHT22;12556;55.748;13.194;2022-12-24T01:26:24;-3.50;99.90
11772;DHT22;12556;55.748;13.194;2022-12-24T01:28:51;-3.50;99.90
11772;DHT22;12556;55.748;13.194;2022-12-24T01:31:18;-3.50;99.90
11772;DHT22;12556;55.748;13.194;2022-12-24T01:33:47;-3.50;99.90
11772;DHT22;12556;55.748;13.194;2022-12-24T01:36:14;-3.60;99.90
11772;DHT22;12556;55.748;13.194;2022-12-24T01:38:41;-3.60;99.90
11772;DHT22;12556;55.748;13.194;2022-12-24T01:41:15;-3.60;99.90
11772;DHT22;12556;55.748;13.194;2022-12-24T01:44:15;-3.60;99.90
11772;DHT22;12556;55.748;13.194;2022-12-24T01:46:42;-3.70;99.90
11772;DHT22;12556;55.748;13.194;2022-12-24T01:49:10;-3.70;99.90
11772;DHT22;12556;55.748;13.194;2022-12-24T01:51:42;-3.70;99.90
11772;DHT22;12556;55.748;13.194;2022-12-24T01:54:13;-3.70;99.90
11772;DHT22;12556;55.748;13.194;2022-12-24T01:56:45;-3.60;99.90
11772;DHT22;12556;55.748;13.194;2022-12-24T01:59:15;-3.60;99.90
11772;DHT22;12556;55.748;13.194;2022-12-24T02:01:44;-3.70;99.90
11772;DHT22;12556;55.748;13.194;2022-12-24T02:04:16;-3.60;99.90
11772;DHT22;12556;55.748;13.194;2022-12-24T02:06:45;-3.70;99.90
11772;DHT22;12556;55.748;13.194;2022-12-24T02:09:12;-3.70;99.90
11772;DHT22;12556;55.748;13.194;2022-12-24T02:11:40;-3.70;99.90
11772;DHT22;12556;55.748;13.194;2022-12-24T02:14:11;-3.60;99.90
11772;DHT22;12556;55.748;13.194;2022-12-24T02:16:44;-3.60;99.90
11772;DHT22;12556;55.748;13.194;2022-12-24T02:22:22;-3.60;99.90
11772;DHT22;12556;55.748;13.194;2022-12-24T02:25:22;-3.60;99.90
11772;DHT22;12556;55.748;13.194;2022-12-24T02:27:55;-3.60;99.90
11772;DHT22;12556;55.748;13.194;2022-12-24T02:30:29;-3.60;99.90
11772;DHT22;12556;55.748;13.194;2022-12-24T02:33:06;-3.60;99.90
11772;DHT22;12556;55.748;13.194;2022-12-24T02:35:43;-3.50;99.90
11772;DHT22;12556;55.748;13.194;2022-12-24T02:38:17;-3.50;99.90
11772;DHT22;12556;55.748;13.194;2022-12-24T02:40:49;-3.50;99.90
11772;DHT22;12556;55.748;13.194;2022-12-24T02:43:20;-3.50;99.90
11772;DHT22;12556;55.748;13.194;2022-12-24T02:45:55;-3.50;99.90
11772;DHT22;12556;55.748;13.194;2022-12-24T02:48:23;-3.50;99.90
11772;DHT22;12556;55.748;13.194;2022-12-24T02:51:01;-3.50;99.90
11772;DHT22;12556;55.748;13.194;2022-12-24T02:53:29;-3.50;99.90
11772;DHT22;12556;55.748;13.194;2022-12-24T02:56:22;-3.50;99.90
11772;DHT22;12556;55.748;13.194;2022-12-24T02:59:02;-3.40;99.90
11772;DHT22;12556;55.748;13.194;2022-12-24T03:01:42;-3.40;99.90
11772;DHT22;12556;55.748;13.194;2022-12-24T03:04:16;-3.40;99.90
11772;DHT22;12556;55.748;13.194;2022-12-24T03:07:07;-3.40;99.90
11772;DHT22;12556;55.748;13.194;2022-12-24T03:09:43;-3.40;99.90
11772;DHT22;12556;55.748;13.194;2022-12-24T03:12:14;-3.40;99.90
11772;DHT22;12556;55.748;13.194;2022-12-24T03:14:42;-3.40;99.90
11772;DHT22;12556;55.748;13.194;2022-12-24T03:17:11;-3.40;99.90
11772;DHT22;12556;55.748;13.194;2022-12-24T03:19:38;-3.40;99.90
11772;DHT22;12556;55.748;13.194;2022-12-24T03:22:08;-3.40;99.90
11772;DHT22;12556;55.748;13.194;2022-12-24T03:24:36;-3.30;99.90
11772;DHT22;12556;55.748;13.194;2022-12-24T03:27:04;-3.30;99.90
11772;DHT22;12556;55.748;13.194;2022-12-24T03:29:32;-3.40;99.90
11772;DHT22;12556;55.748;13.194;2022-12-24T03:32:01;-3.40;99.90
11772;DHT22;12556;55.748;13.194;2022-12-24T03:34:30;-3.30;99.90
11772;DHT22;12556;55.748;13.194;2022-12-24T03:36:57;-3.40;99.90
11772;DHT22;12556;55.748;13.194;2022-12-24T03:39:24;-3.30;99.90
11772;DHT22;12556;55.748;13.194;2022-12-24T03:41:51;-3.40;99.90
11772;DHT22;12556;55.748;13.194;2022-12-24T03:44:18;-3.40;99.90
11772;DHT22;12556;55.748;13.194;2022-12-24T03:46:45;-3.40;99.90
11772;DHT22;12556;55.748;13.194;2022-12-24T03:49:12;-3.20;99.90
11772;DHT22;12556;55.748;13.194;2022-12-24T03:51:40;-3.40;99.90
11772;DHT22;12556;55.748;13.194;2022-12-24T03:54:07;-3.40;99.90
11772;DHT22;12556;55.748;13.194;2022-12-24T03:56:34;-3.40;99.90
11772;DHT22;12556;55.748;13.194;2022-12-24T03:59:01;-3.40;99.90
11772;DHT22;12556;55.748;13.194;2022-12-24T04:01:28;-3.40;99.90
11772;DHT22;12556;55.748;13.194;2022-12-24T04:03:54;-3.40;99.90
11772;DHT22;12556;55.748;13.194;2022-12-24T04:06:21;-3.40;99.90
11772;DHT22;12556;55.748;13.194;2022-12-24T04:08:50;-3.40;99.90
11772;DHT22;12556;55.748;13.194;2022-12-24T04:11:17;-3.40;99.90
11772;DHT22;12556;55.748;13.194;2022-12-24T04:13:44;-3.40;99.90
11772;DHT22;12556;55.748;13.194;2022-12-24T04:16:13;-3.40;99.90
11772;DHT22;12556;55.748;13.194;2022-12-24T04:18:40;-3.40;99.90
11772;DHT22;12556;55.748;13.194;2022-12-24T04:21:08;-3.30;99.90
11772;DHT22;12556;55.748;13.194;2022-12-24T04:23:36;-3.40;99.90
11772;DHT22;12556;55.748;13.194;2022-12-24T04:26:07;-3.30;99.90
11772;DHT22;12556;55.748;13.194;2022-12-24T04:28:34;-3.40;99.90
11772;DHT22;12556;55.748;13.194;2022-12-24T04:31:02;-3.40;99.90
11772;DHT22;12556;55.748;13.194;2022-12-24T04:33:29;-3.30;99.90
11772;DHT22;12556;55.748;13.194;2022-12-24T04:35:57;-3.30;99.90
11772;DHT22;12556;55.748;13.194;2022-12-24T04:38:24;-3.40;99.90
11772;DHT22;12556;55.748;13.194;2022-12-24T04:40:57;-3.30;99.90
11772;DHT22;12556;55.748;13.194;2022-12-24T04:43:25;-3.30;99.90
11772;DHT22;12556;55.748;13.194;2022-12-24T04:45:52;-3.30;99.90
11772;DHT22;12556;55.748;13.194;2022-12-24T04:48:19;-3.30;99.90
11772;DHT22;12556;55.748;13.194;2022-12-24T04:50:46;-3.30;99.90
11772;DHT22;12556;55.748;13.194;2022-12-24T04:53:13;-3.40;99.90
11772;DHT22;12556;55.748;13.194;2022-12-24T04:55:43;-3.40;99.90
11772;DHT22;12556;55.748;13.194;2022-12-24T04:58:10;-3.40;99.90
11772;DHT22;12556;55.748;13.194;2022-12-24T05:00:38;-4.50;99.90
11772;DHT22;12556;55.748;13.194;2022-12-24T05:03:05;-3.40;99.90
11772;DHT22;12556;55.748;13.194;2022-12-24T05:05:32;-3.40;99.90
11772;DHT22;12556;55.748;13.194;2022-12-24T05:07:59;-3.40;99.90
11772;DHT22;12556;55.748;13.194;2022-12-24T05:10:26;-3.40;99.90
11772;DHT22;12556;55.748;13.194;2022-12-24T05:12:53;-3.40;99.90
11772;DHT22;12556;55.748;13.194;2022-12-24T05:15:20;-3.40;99.90
11772;DHT22;12556;55.748;13.194;2022-12-24T05:17:48;-3.40;99.90
11772;DHT22;12556;55.748;13.194;2022-12-24T05:20:15;-3.40;99.90
11772;DHT22;12556;55.748;13.194;2022-12-24T05:22:42;-3.40;99.90
11772;DHT22;12556;55.748;13.194;2022-12-24T05:25:30;-3.30;99.90
11772;DHT22;12556;55.748;13.194;2022-12-24T05:28:14;-3.40;99.90
11772;DHT22;12556;55.748;13.194;2022-12-24T05:30:41;-3.40;99.90
11772;DHT22;12556;55.748;13.194;2022-12-24T05:33:10;-3.30;99.90
11772;DHT22;12556;55.748;13.194;2022-12-24T05:35:36;-3.30;99.90
11772;DHT22;12556;55.748;13.194;2022-12-24T05:38:03;-3.20;99.90
11772;DHT22;12556;55.748;13.194;2022-12-24T05:40:30;-3.20;99.90
11772;DHT22;12556;55.748;13.194;2022-12-24T05:42:57;-3.20;99.90
11772;DHT22;12556;55.748;13.194;2022-12-24T05:45:24;-3.20;99.90
11772;DHT22;12556;55.748;13.194;2022-12-24T05:47:51;-3.20;99.90
11772;DHT22;12556;55.748;13.194;2022-12-24T05:50:19;-3.20;99.90
11772;DHT22;12556;55.748;13.194;2022-12-24T05:52:46;-3.20;99.90
11772;DHT22;12556;55.748;13.194;2022-12-24T05:55:13;-3.20;99.90
11772;DHT22;12556;55.748;13.194;2022-12-24T05:57:40;-3.20;99.90
11772;DHT22;12556;55.748;13.194;2022-12-24T06:00:08;-3.10;99.90
11772;DHT22;12556;55.748;13.194;2022-12-24T06:02:35;-3.10;99.90
11772;DHT22;12556;55.748;13.194;2022-12-24T06:05:05;-3.10;99.90
11772;DHT22;12556;55.748;13.194;2022-12-24T06:07:34;-3.10;99.90
11772;DHT22;12556;55.748;13.194;2022-12-24T06:10:00;-3.10;99.90
11772;DHT22;12556;55.748;13.194;2022-12-24T06:12:28;-3.10;99.90
11772;DHT22;12556;55.748;13.194;2022-12-24T06:14:55;-3.00;99.90
11772;DHT22;12556;55.748;13.194;2022-12-24T06:17:21;-3.00;99.90
11772;DHT22;12556;55.748;13.194;2022-12-24T06:19:48;-2.90;99.90
11772;DHT22;12556;55.748;13.194;2022-12-24T06:22:15;-2.90;99.90
11772;DHT22;12556;55.748;13.194;2022-12-24T06:24:43;-2.90;99.90
11772;DHT22;12556;55.748;13.194;2022-12-24T06:27:10;-2.80;99.90
11772;DHT22;12556;55.748;13.194;2022-12-24T06:29:37;-2.70;99.90
11772;DHT22;12556;55.748;13.194;2022-12-24T06:32:04;-2.70;99.90
11772;DHT22;12556;55.748;13.194;2022-12-24T06:34:31;-2.60;99.90
11772;DHT22;12556;55.748;13.194;2022-12-24T06:36:58;-2.60;99.90
11772;DHT22;12556;55.748;13.194;2022-12-24T06:39:25;-2.50;99.90
11772;DHT22;12556;55.748;13.194;2022-12-24T06:41:53;-2.50;99.90
11772;DHT22;12556;55.748;13.194;2022-12-24T06:44:20;-2.50;99.90
11772;DHT22;12556;55.748;13.194;2022-12-24T06:46:47;-2.40;99.90
11772;DHT22;12556;55.748;13.194;2022-12-24T06:49:14;-2.40;99.90
11772;DHT22;12556;55.748;13.194;2022-12-24T06:51:41;-2.40;99.90
11772;DHT22;12556;55.748;13.194;2022-12-24T06:54:08;-2.40;99.90
11772;DHT22;12556;55.748;13.194;2022-12-24T06:56:34;-2.40;99.90
11772;DHT22;12556;55.748;13.194;2022-12-24T06:59:03;-2.30;99.90
11772;DHT22;12556;55.748;13.194;2022-12-24T07:01:29;-2.30;99.90
11772;DHT22;12556;55.748;13.194;2022-12-24T07:03:56;-2.30;99.90
11772;DHT22;12556;55.748;13.194;2022-12-24T07:06:25;-1.50;99.90
11772;DHT22;12556;55.748;13.194;2022-12-24T07:08:52;-2.20;99.90
11772;DHT22;12556;55.748;13.194;2022-12-24T07:11:20;-2.20;99.90
11772;DHT22;12556;55.748;13.194;2022-12-24T07:13:47;-2.10;99.90
11772;DHT22;12556;55.748;13.194;2022-12-24T07:16:15;-2.10;99.90
11772;DHT22;12556;55.748;13.194;2022-12-24T07:18:42;-2.10;99.90
11772;DHT22;12556;55.748;13.194;2022-12-24T07:21:09;-2.10;99.90
11772;DHT22;12556;55.748;13.194;2022-12-24T07:23:36;-2.00;99.90
11772;DHT22;12556;55.748;13.194;2022-12-24T07:26:04;-2.00;99.90
11772;DHT22;12556;55.748;13.194;2022-12-24T07:28:32;-2.00;99.90
11772;DHT22;12556;55.748;13.194;2022-12-24T07:30:59;-1.90;99.90
11772;DHT22;12556;55.748;13.194;2022-12-24T07:33:27;-1.90;99.90
11772;DHT22;12556;55.748;13.194;2022-12-24T07:35:59;-1.90;99.90
11772;DHT22;12556;55.748;13.194;2022-12-24T07:38:26;-1.90;99.90
11772;DHT22;12556;55.748;13.194;2022-12-24T07:40:53;-1.80;99.90
11772;DHT22;12556;55.748;13.194;2022-12-24T07:43:20;-1.80;99.90
11772;DHT22;12556;55.748;13.194;2022-12-24T07:45:47;-1.80;99.90
11772;DHT22;12556;55.748;13.194;2022-12-24T07:48:14;-1.80;99.90
11772;DHT22;12556;55.748;13.194;2022-12-24T07:50:42;-1.70;99.90
11772;DHT22;12556;55.748;13.194;2022-12-24T07:53:09;-1.70;99.90
11772;DHT22;12556;55.748;13.194;2022-12-24T07:55:36;-1.70;99.90
11772;DHT22;12556;55.748;13.194;2022-12-24T07:58:03;-1.70;99.90
11772;DHT22;12556;55.748;13.194;2022-12-24T08:00:30;-1.60;99.90
11772;DHT22;12556;55.748;13.194;2022-12-24T08:02:57;-1.60;99.90
11772;DHT22;12556;55.748;13.194;2022-12-24T08:05:25;-1.60;99.90
11772;DHT22;12556;55.748;13.194;2022-12-24T08:07:54;-1.50;99.90
11772;DHT22;12556;55.748;13.194;2022-12-24T08:10:21;-1.50;99.90
11772;DHT22;12556;55.748;13.194;2022-12-24T08:12:48;-1.50;99.90
11772;DHT22;12556;55.748;13.194;2022-12-24T08:15:15;-1.50;99.90
11772;DHT22;12556;55.748;13.194;2022-12-24T08:17:42;-1.40;99.90
11772;DHT22;12556;55.748;13.194;2022-12-24T08:20:10;-1.40;99.90
11772;DHT22;12556;55.748;13.194;2022-12-24T08:22:37;-1.40;99.90
11772;DHT22;12556;55.748;13.194;2022-12-24T08:25:06;-1.40;99.90
11772;DHT22;12556;55.748;13.194;2022-12-24T08:27:33;-1.40;99.90
11772;DHT22;12556;55.748;13.194;2022-12-24T08:30:01;-1.40;99.90
11772;DHT22;12556;55.748;13.194;2022-12-24T08:32:28;-1.30;99.90
11772;DHT22;12556;55.748;13.194;2022-12-24T08:34:54;-1.30;99.90
11772;DHT22;12556;55.748;13.194;2022-12-24T08:37:22;-1.30;99.90
11772;DHT22;12556;55.748;13.194;2022-12-24T08:39:48;-1.30;99.90
11772;DHT22;12556;55.748;13.194;2022-12-24T08:42:17;-1.30;99.90
11772;DHT22;12556;55.748;13.194;2022-12-24T08:44:44;-1.30;99.90
11772;DHT22;12556;55.748;13.194;2022-12-24T08:47:11;-1.30;99.90
11772;DHT22;12556;55.748;13.194;2022-12-24T08:49:38;-1.30;99.90
11772;DHT22;12556;55.748;13.194;2022-12-24T08:52:05;-1.20;99.90
11772;DHT22;12556;55.748;13.194;2022-12-24T08:54:32;-1.20;99.90
11772;DHT22;12556;55.748;13.194;2022-12-24T08:56:59;-1.20;99.90
11772;DHT22;12556;55.748;13.194;2022-12-24T08:59:27;-1.20;99.90
11772;DHT22;12556;55.748;13.194;2022-12-24T09:01:54;-1.10;99.90
11772;DHT22;12556;55.748;13.194;2022-12-24T09:04:21;-1.10;99.90
11772;DHT22;12556;55.748;13.194;2022-12-24T09:06:48;-1.10;99.90
11772;DHT22;12556;55.748;13.194;2022-12-24T09:09:15;-1.00;99.90
11772;DHT22;12556;55.748;13.194;2022-12-24T09:11:41;-1.00;99.90
11772;DHT22;12556;55.748;13.194;2022-12-24T09:14:09;-1.00;99.90
11772;DHT22;12556;55.748;13.194;2022-12-24T09:16:38;-1.00;99.90
11772;DHT22;12556;55.748;13.194;2022-12-24T09:19:04;-1.00;99.90
11772;DHT22;12556;55.748;13.194;2022-12-24T09:21:31;-0.90;99.90
11772;DHT22;12556;55.748;13.194;2022-12-24T09:23:58;-0.90;99.90
11772;DHT22;12556;55.748;13.194;2022-12-24T09:26:26;-0.90;99.90
11772;DHT22;12556;55.748;13.194;2022-12-24T09:28:57;-0.80;99.90
11772;DHT22;12556;55.748;13.194;2022-12-24T09:31:25;-0.80;99.90
11772;DHT22;12556;55.748;13.194;2022-12-24T09:33:54;-0.70;99.90
11772;DHT22;12556;55.748;13.194;2022-12-24T09:36:21;-0.60;99.90
11772;DHT22;12556;55.748;13.194;2022-12-24T09:38:48;-0.60;99.90
11772;DHT22;12556;55.748;13.194;2022-12-24T09:41:25;-0.60;99.90
11772;DHT22;12556;55.748;13.194;2022-12-24T09:43:58;-0.50;99.90
11772;DHT22;12556;55.748;13.194;2022-12-24T09:46:30;-0.50;99.90
11772;DHT22;12556;55.748;13.194;2022-12-24T09:49:02;-0.50;99.90
11772;DHT22;12556;55.748;13.194;2022-12-24T09:51:34;-0.40;99.90
11772;DHT22;12556;55.748;13.194;2022-12-24T09:54:04;-1.40;99.90
11772;DHT22;12556;55.748;13.194;2022-12-24T09:56:37;-0.40;99.90
11772;DHT22;12556;55.748;13.194;2022-12-24T09:59:06;-0.30;99.90
11772;DHT22;12556;55.748;13.194;2022-12-24T10:01:35;-0.30;99.90
11772;DHT22;12556;55.748;13.194;2022-12-24T10:04:08;-0.30;99.90
11772;DHT22;12556;55.748;13.194;2022-12-24T10:06:39;-0.20;99.90
11772;DHT22;12556;55.748;13.194;2022-12-24T10:09:16;-0.20;99.90
11772;DHT22;12556;55.748;13.194;2022-12-24T10:11:49;-0.20;99.90
11772;DHT22;12556;55.748;13.194;2022-12-24T10:14:28;-0.20;99.90
11772;DHT22;12556;55.748;13.194;2022-12-24T10:17:13;-0.10;99.90
11772;DHT22;12556;55.748;13.194;2022-12-24T10:19:48;-0.10;99.90
11772;DHT22;12556;55.748;13.194;2022-12-24T10:22:21;-0.10;99.90
11772;DHT22;12556;55.748;13.194;2022-12-24T10:24:58;0.00;99.90
11772;DHT22;12556;55.748;13.194;2022-12-24T10:27:31;0.00;99.90
11772;DHT22;12556;55.748;13.194;2022-12-24T10:30:03;0.00;99.90
11772;DHT22;12556;55.748;13.194;2022-12-24T10:32:33;0.10;99.90
11772;DHT22;12556;55.748;13.194;2022-12-24T10:35:10;0.50;99.90
11772;DHT22;12556;55.748;13.194;2022-12-24T10:37:45;0.20;99.90
11772;DHT22;12556;55.748;13.194;2022-12-24T10:40:14;0.30;99.90
11772;DHT22;12556;55.748;13.194;2022-12-24T10:42:42;0.30;99.90
11772;DHT22;12556;55.748;13.194;2022-12-24T10:45:14;0.30;99.90
11772;DHT22;12556;55.748;13.194;2022-12-24T10:47:43;0.40;99.90
11772;DHT22;12556;55.748;13.194;2022-12-24T10:50:17;0.40;99.90
11772;DHT22;12556;55.748;13.194;2022-12-24T10:52:47;0.50;99.90
11772;DHT22;12556;55.748;13.194;2022-12-24T10:55:21;0.50;99.90
11772;DHT22;12556;55.748;13.194;2022-12-24T10:57:59;0.60;99.90
11772;DHT22;12556;55.748;13.194;2022-12-24T11:00:26;0.60;99.90
11772;DHT22;12556;55.748;13.194;2022-12-24T11:03:07;0.60;99.90
11772;DHT22;12556;55.748;13.194;2022-12-24T11:05:39;0.70;99.90
11772;DHT22;12556;55.748;13.194;2022-12-24T11:08:17;0.80;99.90
11772;DHT22;12556;55.748;13.194;2022-12-24T11:10:54;0.80;99.90
11772;DHT22;12556;55.748;13.194;2022-12-24T11:13:23;0.90;99.90
11772;DHT22;12556;55.748;13.194;2022-12-24T11:15:59;0.90;99.90
11772;DHT22;12556;55.748;13.194;2022-12-24T11:18:27;1.00;99.90
11772;DHT22;12556;55.748;13.194;2022-12-24T11:20:56;1.10;99.90
11772;DHT22;12556;55.748;13.194;2022-12-24T11:23:25;1.20;99.90
11772;DHT22;12556;55.748;13.194;2022-12-24T11:25:53;1.30;99.90
11772;DHT22;12556;55.748;13.194;2022-12-24T11:28:23;1.40;99.90
11772;DHT22;12556;55.748;13.194;2022-12-24T11:31:00;1.40;99.90
11772;DHT22;12556;55.748;13.194;2022-12-24T11:33:28;1.50;99.90
11772;DHT22;12556;55.748;13.194;2022-12-24T11:36:05;1.50;99.90
11772;DHT22;12556;55.748;13.194;2022-12-24T11:38:33;1.50;99.90
11772;DHT22;12556;55.748;13.194;2022-12-24T11:41:06;1.60;99.90
11772;DHT22;12556;55.748;13.194;2022-12-24T11:43:42;1.60;99.90
11772;DHT22;12556;55.748;13.194;2022-12-24T11:46:18;1.60;99.90
11772;DHT22;12556;55.748;13.194;2022-12-24T11:48:46;1.60;99.90
11772;DHT22;12556;55.748;13.194;2022-12-24T11:51:23;1.70;99.90
11772;DHT22;12556;55.748;13.194;2022-12-24T11:53:58;1.60;99.90
11772;DHT22;12556;55.748;13.194;2022-12-24T11:56:35;1.60;99.90
11772;DHT22;12556;55.748;13.194;2022-12-24T11:59:11;1.60;99.90
11772;DHT22;12556;55.748;13.194;2022-12-24T12:01:49;1.60;99.90
11772;DHT22;12556;55.748;13.194;2022-12-24T12:04:20;1.70;99.90
11772;DHT22;12556;55.748;13.194;2022-12-24T12:06:50;1.60;99.90
11772;DHT22;12556;55.748;13.194;2022-12-24T12:09:20;1.60;99.90
11772;DHT22;12556;55.748;13.194;2022-12-24T12:11:52;1.60;99.90
11772;DHT22;12556;55.748;13.194;2022-12-24T12:14:24;1.60;99.90
11772;DHT22;12556;55.748;13.194;2022-12-24T12:16:58;1.70;99.90
11772;DHT22;12556;55.748;13.194;2022-12-24T12:19:32;1.60;99.90
11772;DHT22;12556;55.748;13.194;2022-12-24T12:22:04;1.60;99.90
11772;DHT22;12556;55.748;13.194;2022-12-24T12:24:36;1.60;99.90
11772;DHT22;12556;55.748;13.194;2022-12-24T12:27:12;1.60;99.90
11772;DHT22;12556;55.748;13.194;2022-12-24T12:29:45;1.70;99.90
11772;DHT22;12556;55.748;13.194;2022-12-24T12:32:24;1.70;99.90
11772;DHT22;12556;55.748;13.194;2022-12-24T12:34:59;1.70;99.90
11772;DHT22;12556;55.748;13.194;2022-12-24T12:37:34;1.70;99.90
11772;DHT22;12556;55.748;13.194;2022-12-24T12:40:02;1.70;99.90
11772;DHT22;12556;55.748;13.194;2022-12-24T12:42:31;1.60;99.90
11772;DHT22;12556;55.748;13.194;2022-12-24T12:45:20;1.60;99.90
11772;DHT22;12556;55.748;13.194;2022-12-24T12:48:07;1.60;99.90
11772;DHT22;12556;55.748;13.194;2022-12-24T12:50:39;1.60;99.90
11772;DHT22;12556;55.748;13.194;2022-12-24T12:53:26;1.60;99.90
11772;DHT22;12556;55.748;13.194;2022-12-24T12:56:01;1.60;99.90
11772;DHT22;12556;55.748;13.194;2022-12-24T12:58:35;1.50;99.90
11772;DHT22;12556;55.748;13.194;2022-12-24T13:01:07;1.50;99.90
11772;DHT22;12556;55.748;13.194;2022-12-24T13:07:06;1.40;99.90
11772;DHT22;12556;55.748;13.194;2022-12-24T13:10:04;1.40;99.90
11772;DHT22;12556;55.748;13.194;2022-12-24T13:15:48;1.40;99.90
11772;DHT22;12556;55.748;13.194;2022-12-24T13:18:38;1.30;99.90
11772;DHT22;12556;55.748;13.194;2022-12-24T13:21:15;1.40;99.90
11772;DHT22;12556;55.748;13.194;2022-12-24T13:23:43;1.30;99.90
11772;DHT22;12556;55.748;13.194;2022-12-24T13:26:12;1.30;99.90
11772;DHT22;12556;55.748;13.194;2022-12-24T13:28:41;1.30;99.90
11772;DHT22;12556;55.748;13.194;2022-12-24T13:31:27;1.30;99.90
11772;DHT22;12556;55.748;13.194;2022-12-24T13:33:57;1.30;99.90
11772;DHT22;12556;55.748;13.194;2022-12-24T13:36:25;1.30;99.90
11772;DHT22;12556;55.748;13.194;2022-12-24T13:39:18;1.30;99.90
11772;DHT22;12556;55.748;13.194;2022-12-24T13:41:50;1.30;99.90
11772;DHT22;12556;55.748;13.194;2022-12-24T13:44:20;1.30;99.90
11772;DHT22;12556;55.748;13.194;2022-12-24T13:46:53;1.00;99.90
11772;DHT22;12556;55.748;13.194;2022-12-24T13:49:28;1.30;99.90
11772;DHT22;12556;55.748;13.194;2022-12-24T13:52:07;1.30;99.90
11772;DHT22;12556;55.748;13.194;2022-12-24T13:54:37;1.30;99.90
11772;DHT22;12556;55.748;13.194;2022-12-24T13:57:24;1.30;99.90
11772;DHT22;12556;55.748;13.194;2022-12-24T13:59:56;1.30;99.90
11772;DHT22;12556;55.748;13.194;2022-12-24T14:02:26;1.20;99.90
11772;DHT22;12556;55.748;13.194;2022-12-24T14:04:58;1.20;99.90
11772;DHT22;12556;55.748;13.194;2022-12-24T14:07:26;1.20;99.90
11772;DHT22;12556;55.748;13.194;2022-12-24T14:09:53;1.20;99.90
11772;DHT22;12556;55.748;13.194;2022-12-24T14:12:46;1.10;99.90
11772;DHT22;12556;55.748;13.194;2022-12-24T14:15:54;1.20;99.90
11772;DHT22;12556;55.748;13.194;2022-12-24T14:18:26;1.10;99.90
11772;DHT22;12556;55.748;13.194;2022-12-24T14:20:55;1.10;99.90
11772;DHT22;12556;55.748;13.194;2022-12-24T14:23:31;1.10;99.90
11772;DHT22;12556;55.748;13.194;2022-12-24T14:26:01;1.10;99.90
11772;DHT22;12556;55.748;13.194;2022-12-24T14:28:35;1.00;99.90
11772;DHT22;12556;55.748;13.194;2022-12-24T14:31:12;1.00;99.90
11772;DHT22;12556;55.748;13.194;2022-12-24T14:33:40;1.00;99.90
11772;DHT22;12556;55.748;13.194;2022-12-24T14:36:07;1.00;99.90
11772;DHT22;12556;55.748;13.194;2022-12-24T14:38:34;0.90;99.90
11772;DHT22;12556;55.748;13.194;2022-12-24T14:41:06;0.90;99.90
11772;DHT22;12556;55.748;13.194;2022-12-24T14:43:49;0.90;99.90
11772;DHT22;12556;55.748;13.194;2022-12-24T14:46:23;0.80;99.90
11772;DHT22;12556;55.748;13.194;2022-12-24T14:48:55;0.80;99.90
11772;DHT22;12556;55.748;13.194;2022-12-24T14:51:29;0.80;99.90
11772;DHT22;12556;55.748;13.194;2022-12-24T14:54:28;0.70;99.90
11772;DHT22;12556;55.748;13.194;2022-12-24T14:57:20;0.70;99.90
11772;DHT22;12556;55.748;13.194;2022-12-24T14:59:50;0.60;99.90
11772;DHT22;12556;55.748;13.194;2022-12-24T15:02:37;0.60;99.90
11772;DHT22;12556;55.748;13.194;2022-12-24T15:05:09;0.50;99.90
11772;DHT22;12556;55.748;13.194;2022-12-24T15:07:38;0.50;99.90
11772;DHT22;12556;55.748;13.194;2022-12-24T15:10:16;0.50;99.90
11772;DHT22;12556;55.748;13.194;2022-12-24T15:12:46;0.50;99.90
11772;DHT22;12556;55.748;13.194;2022-12-24T15:15:16;0.40;99.90
11772;DHT22;12556;55.748;13.194;2022-12-24T15:17:43;0.30;99.90
11772;DHT22;12556;55.748;13.194;2022-12-24T15:20:14;0.30;99.90
11772;DHT22;12556;55.748;13.194;2022-12-24T15:22:42;0.30;99.90
11772;DHT22;12556;55.748;13.194;2022-12-24T15:25:18;0.30;99.90
11772;DHT22;12556;55.748;13.194;2022-12-24T15:27:45;0.20;99.90
11772;DHT22;12556;55.748;13.194;2022-12-24T15:30:17;0.20;99.90
11772;DHT22;12556;55.748;13.194;2022-12-24T15:32:44;0.20;99.90
11772;DHT22;12556;55.748;13.194;2022-12-24T15:35:43;0.20;99.90
11772;DHT22;12556;55.748;13.194;2022-12-24T15:38:25;0.20;99.90
11772;DHT22;12556;55.748;13.194;2022-12-24T15:40:55;0.10;99.90
11772;DHT22;12556;55.748;13.194;2022-12-24T15:43:23;0.10;99.90
11772;DHT22;12556;55.748;13.194;2022-12-24T15:45:52;0.10;99.90
11772;DHT22;12556;55.748;13.194;2022-12-24T15:48:22;0.10;99.90
11772;DHT22;12556;55.748;13.194;2022-12-24T15:50:52;0.10;99.90